Time;durP1;ratioP1;P1;durP2;ratioP2;P2;SDS_P1;SDS_P2;PMS_P1;PMS_P2;Temp;Humidity;BMP_temperature;BMP_pressure;BME280_temperature;BME280_humidity;BME280_pressure;Samples;Min_cycle;Max_cycle;Signal;HPM_P1;HPM_P2
2024/04/17 00:02:26;;;;;;;3.08;1.42;;;9.00;99.90;;;;;;5491800;26;20215;-76
2024/04/17 00:04:55;;;;;;;4.05;1.45;;;9.10;99.90;;;;;;5491394;26;20317;-77
2024/04/17 00:07:21;;;;;;;5.57;1.95;;;9.10;99.90;;;;;;5491344;26;20219;-76
2024/04/17 00:09:50;;;;;;;6.07;1.77;;;9.10;99.90;;;;;;5490752;26;20256;-77
2024/04/17 00:12:17;;;;;;;4.50;1.60;;;9.00;99.90;;;;;;5491464;26;20211;-76
2024/04/17 00:14:46;;;;;;;2.13;1.48;;;9.00;99.90;;;;;;5490895;26;20572;-76
2024/04/17 00:17:12;;;;;;;3.67;2.10;;;8.90;99.90;;;;;;5491340;26;20211;-76
2024/04/17 00:19:43;;;;;;;1.25;1.23;;;8.90;99.90;;;;;;5490930;26;20257;-76
2024/04/17 00:22:11;;;;;;;3.40;1.52;;;8.80;99.90;;;;;;5491027;26;20262;-76
2024/04/17 00:24:39;;;;;;;2.72;1.50;;;8.80;99.90;;;;;;5490817;26;20230;-77
2024/04/17 00:27:05;;;;;;;1.77;1.40;;;8.80;99.90;;;;;;5490940;26;20223;-76
2024/04/17 00:29:38;;;;;;;5.70;1.50;;;8.80;99.90;;;;;;5491293;26;20254;-76
2024/04/17 00:32:06;;;;;;;2.83;1.90;;;8.70;99.90;;;;;;5490899;26;20215;-76
2024/04/17 00:34:34;;;;;;;3.92;1.30;;;8.70;99.90;;;;;;5489959;26;20242;-76
2024/04/17 00:37:06;;;;;;;3.75;1.35;;;8.70;99.90;;;;;;5491107;26;20223;-76
2024/04/17 00:39:40;;;;;;;3.00;1.60;;;8.60;99.90;;;;;;5491181;26;20257;-76
2024/04/17 00:42:06;;;;;;;3.83;1.88;;;8.60;99.90;;;;;;5490543;26;20297;-76
2024/04/17 00:44:34;;;;;;;5.35;1.70;;;8.60;99.90;;;;;;5490627;26;20218;-77
2024/04/17 00:47:00;;;;;;;2.70;1.30;;;8.60;99.90;;;;;;5490642;26;20253;-77
2024/04/17 00:49:29;;;;;;;3.35;1.40;;;8.50;99.90;;;;;;5490732;26;20211;-76
2024/04/17 00:51:56;;;;;;;6.85;1.88;;;8.50;99.90;;;;;;5490261;26;20214;-77
2024/04/17 00:54:27;;;;;;;8.07;1.70;;;8.50;99.90;;;;;;5490527;26;20219;-77
2024/04/17 00:56:55;;;;;;;3.50;1.40;;;8.50;99.90;;;;;;5490894;26;20214;-76
2024/04/17 00:59:24;;;;;;;4.70;1.75;;;8.50;99.90;;;;;;5490747;26;20219;-78
2024/04/17 01:01:50;;;;;;;5.43;1.70;;;8.50;99.90;;;;;;5490619;26;20664;-77
2024/04/17 01:04:18;;;;;;;4.43;1.55;;;8.40;99.90;;;;;;5490372;26;20211;-77
2024/04/17 01:06:47;;;;;;;2.53;1.48;;;8.40;99.90;;;;;;5490220;26;20254;-77
2024/04/17 01:09:16;;;;;;;3.33;1.27;;;8.40;99.90;;;;;;5490085;26;20253;-77
2024/04/17 01:11:47;;;;;;;2.22;1.77;;;8.30;99.90;;;;;;5490175;26;20269;-77
2024/04/17 01:14:15;;;;;;;2.85;1.70;;;8.30;99.90;;;;;;5490445;26;20836;-76
2024/04/17 01:16:41;;;;;;;3.83;1.40;;;8.30;99.90;;;;;;5490116;26;20262;-76
2024/04/17 01:19:12;;;;;;;8.23;2.10;;;8.30;99.90;;;;;;5490343;26;20319;-76
2024/04/17 01:21:38;;;;;;;1.50;1.40;;;8.30;99.90;;;;;;5489589;26;20211;-77
2024/04/17 01:24:09;;;;;;;9.27;1.48;;;8.20;99.90;;;;;;5490478;26;20322;-77
2024/04/17 01:26:36;;;;;;;3.30;1.73;;;8.20;99.90;;;;;;5490420;26;20261;-76
2024/04/17 01:29:04;;;;;;;3.42;1.35;;;8.20;99.90;;;;;;5490260;26;20222;-77
2024/04/17 01:31:30;;;;;;;9.25;1.75;;;8.10;99.90;;;;;;5490099;26;20543;-76
2024/04/17 01:33:59;;;;;;;4.18;1.80;;;8.10;99.90;;;;;;5490521;26;20218;-76
2024/04/17 01:36:25;;;;;;;8.50;1.98;;;8.10;99.90;;;;;;5489541;26;20231;-76
2024/04/17 01:38:54;;;;;;;9.35;1.67;;;8.10;99.90;;;;;;5489913;26;20261;-76
2024/04/17 01:41:25;;;;;;;4.55;1.63;;;8.10;99.90;;;;;;5489537;26;20230;-76
2024/04/17 01:43:51;;;;;;;4.13;1.40;;;8.10;99.90;;;;;;5489831;26;20222;-77
2024/04/17 01:46:20;;;;;;;6.00;1.55;;;8.10;99.90;;;;;;5489582;26;20261;-76
2024/04/17 01:48:48;;;;;;;5.18;1.67;;;8.00;99.90;;;;;;5489886;26;20222;-76
2024/04/17 01:51:17;;;;;;;5.40;1.60;;;8.00;99.90;;;;;;5489988;26;20238;-77
2024/04/17 01:53:43;;;;;;;7.50;1.67;;;8.00;99.90;;;;;;5489200;26;20968;-77
2024/04/17 01:56:12;;;;;;;3.80;1.52;;;8.00;99.90;;;;;;5489841;26;20261;-76
2024/04/17 01:58:40;;;;;;;6.70;2.08;;;8.00;99.90;;;;;;5489356;26;20257;-75
2024/04/17 02:01:09;;;;;;;5.63;1.45;;;8.00;99.90;;;;;;5489669;26;20219;-77
2024/04/17 02:03:36;;;;;;;7.53;1.83;;;8.00;99.90;;;;;;5489249;26;20215;-76
2024/04/17 02:06:05;;;;;;;1.50;1.30;;;8.00;99.90;;;;;;5489325;26;20310;-76
2024/04/17 02:08:33;;;;;;;3.50;1.35;;;8.00;99.90;;;;;;5489076;26;20215;-76
2024/04/17 02:11:03;;;;;;;4.43;1.50;;;8.00;99.90;;;;;;5488992;26;20253;-76
2024/04/17 02:13:29;;;;;;;5.25;1.70;;;8.00;99.90;;;;;;5489178;26;20218;-77
2024/04/17 02:16:06;;;;;;;5.20;1.60;;;8.00;99.90;;;;;;5489721;26;20286;-76
2024/04/17 02:18:32;;;;;;;6.25;1.30;;;8.00;99.90;;;;;;5488997;26;20245;-76
2024/04/17 02:21:01;;;;;;;5.90;1.80;;;8.00;99.90;;;;;;5489735;26;20695;-76
2024/04/17 02:23:28;;;;;;;6.18;1.60;;;8.00;99.90;;;;;;5489281;26;20222;-76
2024/04/17 02:25:57;;;;;;;3.50;1.20;;;8.00;99.90;;;;;;5489212;26;20266;-76
2024/04/17 02:28:23;;;;;;;4.47;1.25;;;7.90;99.90;;;;;;5489368;26;20614;-76
2024/04/17 02:30:52;;;;;;;2.05;1.27;;;7.90;99.90;;;;;;5488892;26;20231;-77
2024/04/17 02:33:20;;;;;;;3.53;1.52;;;7.90;99.90;;;;;;5491184;26;20215;-76
2024/04/17 02:35:49;;;;;;;0.93;0.93;;;8.00;99.90;;;;;;5492424;26;20230;-77
2024/04/17 02:38:16;;;;;;;2.78;1.40;;;8.00;99.90;;;;;;5492747;26;20218;-75
2024/04/17 02:40:45;;;;;;;1.83;1.23;;;8.00;99.90;;;;;;5492584;26;20322;-76
2024/04/17 02:43:11;;;;;;;5.57;1.33;;;8.00;99.90;;;;;;5492252;26;20219;-78
2024/04/17 02:45:39;;;;;;;2.38;1.08;;;8.00;99.90;;;;;;5492587;26;20230;-77
2024/04/17 02:48:06;;;;;;;2.80;1.10;;;8.00;99.90;;;;;;5492316;26;20215;-77
2024/04/17 02:50:40;;;;;;;3.70;1.17;;;8.00;99.90;;;;;;5492167;26;20231;-78
2024/04/17 02:53:07;;;;;;;2.97;1.23;;;8.10;99.90;;;;;;5492329;26;20229;-80
2024/04/17 02:55:35;;;;;;;2.10;1.13;;;8.10;99.90;;;;;;5492470;26;20227;-77
2024/04/17 02:58:02;;;;;;;1.55;0.95;;;8.10;99.90;;;;;;5492678;26;20370;-78
2024/04/17 03:00:31;;;;;;;1.02;0.90;;;8.10;99.90;;;;;;5492490;26;20223;-78
2024/04/17 03:02:57;;;;;;;2.47;1.15;;;8.10;99.90;;;;;;5492236;26;20223;-76
2024/04/17 03:05:27;;;;;;;0.95;0.90;;;8.10;99.90;;;;;;5492279;26;20624;-77
2024/04/17 03:07:57;;;;;;;5.75;1.38;;;8.10;99.90;;;;;;5492383;26;20258;-79
2024/04/17 03:10:25;;;;;;;0.98;0.98;;;8.10;99.90;;;;;;5491900;26;20270;-78
2024/04/17 03:12:52;;;;;;;0.93;0.93;;;8.20;99.90;;;;;;5492033;26;20222;-77
2024/04/17 03:15:20;;;;;;;1.38;1.25;;;8.20;99.90;;;;;;5491983;26;20215;-77
2024/04/17 03:17:46;;;;;;;1.30;1.05;;;8.20;99.90;;;;;;5492328;26;20214;-77
2024/04/17 03:20:15;;;;;;;1.92;1.17;;;8.20;99.90;;;;;;5491890;26;20288;-78
2024/04/17 03:22:41;;;;;;;8.23;2.00;;;8.20;99.90;;;;;;5491876;26;20215;-77
2024/04/17 03:25:13;;;;;;;3.55;1.40;;;8.20;99.90;;;;;;5491628;26;20219;-76
2024/04/17 03:27:39;;;;;;;2.08;1.85;;;8.20;99.90;;;;;;5492401;26;20246;-77
2024/04/17 03:30:08;;;;;;;3.25;1.95;;;8.20;99.90;;;;;;5491995;26;20274;-80
2024/04/17 03:32:35;;;;;;;4.20;2.30;;;8.20;99.90;;;;;;5491790;26;20218;-78
2024/04/17 03:35:03;;;;;;;2.63;2.50;;;8.20;99.90;;;;;;5491282;26;20281;-78
2024/04/17 03:37:32;;;;;;;5.00;2.70;;;8.20;99.90;;;;;;5491551;26;20557;-77
2024/04/17 03:40:06;;;;;;;2.72;2.38;;;8.20;99.90;;;;;;5492561;26;20223;-77
2024/04/17 03:42:37;;;;;;;5.50;2.67;;;8.20;99.90;;;;;;5491434;26;20258;-77
2024/04/17 03:45:06;;;;;;;2.83;2.53;;;8.30;99.90;;;;;;5491661;26;20267;-77
2024/04/17 03:47:37;;;;;;;5.55;2.72;;;8.30;99.90;;;;;;5491722;26;20223;-77
2024/04/17 03:50:04;;;;;;;4.15;2.50;;;8.20;99.90;;;;;;5491777;26;20245;-80
2024/04/17 03:52:33;;;;;;;2.15;2.00;;;8.30;99.90;;;;;;5491536;26;20235;-76
2024/04/17 03:55:01;;;;;;;2.70;2.10;;;8.30;99.90;;;;;;5491465;26;20215;-76
2024/04/17 03:57:30;;;;;;;4.53;2.45;;;8.30;99.90;;;;;;5491591;26;20316;-78
2024/04/17 03:59:59;;;;;;;4.50;2.53;;;8.30;99.90;;;;;;5491358;26;20246;-80
2024/04/17 04:02:28;;;;;;;5.68;2.75;;;8.30;99.90;;;;;;5491586;26;20223;-76
2024/04/17 04:04:54;;;;;;;3.25;2.20;;;8.30;99.90;;;;;;5490991;26;20231;-78
2024/04/17 04:07:22;;;;;;;4.35;2.67;;;8.30;99.90;;;;;;5490948;26;20219;-77
2024/04/17 04:09:49;;;;;;;3.13;2.70;;;8.30;99.90;;;;;;5491061;26;20387;-76
2024/04/17 04:12:18;;;;;;;5.78;2.55;;;8.30;99.90;;;;;;5490717;26;20227;-78
2024/04/17 04:14:44;;;;;;;3.00;2.78;;;8.30;99.90;;;;;;5490938;26;20868;-77
2024/04/17 04:17:15;;;;;;;5.22;2.40;;;8.40;99.90;;;;;;5491052;26;20219;-76
2024/04/17 04:19:42;;;;;;;2.40;2.25;;;8.40;99.90;;;;;;5491565;26;20218;-76
2024/04/17 04:22:11;;;;;;;3.72;2.10;;;8.40;99.90;;;;;;5491021;26;20223;-77
2024/04/17 04:24:37;;;;;;;3.75;1.80;;;8.40;99.90;;;;;;5491020;26;20219;-76
2024/04/17 04:27:06;;;;;;;2.35;1.75;;;8.40;99.90;;;;;;5490747;26;20286;-76
2024/04/17 04:29:32;;;;;;;3.45;2.22;;;8.40;99.90;;;;;;5490949;26;20702;-77
2024/04/17 04:32:00;;;;;;;3.45;1.90;;;8.40;99.90;;;;;;5490647;26;20223;-77
2024/04/17 04:34:29;;;;;;;2.47;2.28;;;8.40;99.90;;;;;;5490921;26;20215;-77
2024/04/17 04:36:59;;;;;;;3.13;2.47;;;8.40;99.90;;;;;;5490780;26;20347;-77
2024/04/17 04:39:25;;;;;;;3.58;2.63;;;8.40;99.90;;;;;;5491205;26;20215;-79
2024/04/17 04:41:54;;;;;;;2.20;2.00;;;8.40;99.90;;;;;;5490486;26;20215;-78
2024/04/17 04:44:20;;;;;;;3.30;2.08;;;8.40;99.90;;;;;;5490791;26;20222;-80
2024/04/17 04:46:51;;;;;;;1.58;1.50;;;8.40;99.90;;;;;;5490623;26;20223;-79
2024/04/17 04:49:17;;;;;;;3.60;1.67;;;8.40;99.90;;;;;;5490895;26;20245;-78
2024/04/17 04:51:48;;;;;;;2.58;1.45;;;8.50;99.90;;;;;;5490836;26;20219;-78
2024/04/17 04:54:14;;;;;;;2.25;1.10;;;8.50;99.90;;;;;;5490179;26;20253;-80
2024/04/17 04:56:43;;;;;;;2.72;1.75;;;8.50;99.90;;;;;;5489770;26;20211;-78
2024/04/17 04:59:09;;;;;;;1.70;1.60;;;8.50;99.90;;;;;;5490842;26;20249;-79
2024/04/17 05:01:38;;;;;;;4.10;1.75;;;8.50;99.90;;;;;;5490508;26;20256;-77
2024/04/17 05:04:04;;;;;;;4.50;1.40;;;8.50;99.90;;;;;;5490853;26;20215;-77
2024/04/17 05:06:34;;;;;;;4.60;1.95;;;8.50;99.90;;;;;;5490624;26;20218;-78
2024/04/17 05:09:03;;;;;;;1.13;1.00;;;8.40;99.90;;;;;;5490273;26;20249;-78
2024/04/17 05:11:32;;;;;;;1.52;1.02;;;8.50;99.90;;;;;;5490011;26;20721;-77
2024/04/17 05:13:58;;;;;;;2.63;1.17;;;8.50;99.90;;;;;;5490437;26;20260;-77
2024/04/17 05:16:27;;;;;;;2.85;1.30;;;8.50;99.90;;;;;;5490507;26;20211;-76
2024/04/17 05:18:55;;;;;;;2.95;1.00;;;8.50;99.90;;;;;;5490166;26;20266;-77
2024/04/17 05:21:23;;;;;;;3.42;1.85;;;8.50;99.90;;;;;;5490250;26;20326;-77
2024/04/17 05:23:49;;;;;;;2.55;1.10;;;8.50;99.90;;;;;;5490032;26;20219;-77
2024/04/17 05:26:24;;;;;;;2.30;1.00;;;8.50;99.90;;;;;;5489905;26;20758;-78
2024/04/17 05:28:50;;;;;;;4.07;1.27;;;8.50;99.90;;;;;;5490101;26;20218;-76
2024/04/17 05:31:18;;;;;;;1.95;1.05;;;8.50;99.90;;;;;;5490292;26;20211;-77
2024/04/17 05:33:47;;;;;;;1.65;1.05;;;8.50;99.90;;;;;;5490576;26;20265;-77
2024/04/17 05:36:15;;;;;;;2.28;0.98;;;8.50;99.90;;;;;;5489648;26;20239;-77
2024/04/17 05:38:42;;;;;;;1.83;1.13;;;8.50;99.90;;;;;;5489572;26;20583;-77
2024/04/17 05:41:10;;;;;;;0.70;0.68;;;8.50;99.90;;;;;;5489869;26;20218;-79
2024/04/17 05:43:39;;;;;;;2.70;1.38;;;8.50;99.90;;;;;;5489873;26;20261;-76
2024/04/17 05:46:08;;;;;;;3.63;1.52;;;8.50;99.90;;;;;;5489426;26;20257;-76
2024/04/17 05:48:36;;;;;;;4.45;1.10;;;8.50;99.90;;;;;;5489838;26;20604;-77
2024/04/17 05:51:04;;;;;;;1.65;0.85;;;8.50;99.90;;;;;;5489945;26;20218;-78
2024/04/17 05:53:30;;;;;;;3.80;1.17;;;8.50;99.90;;;;;;5489839;26;20257;-77
2024/04/17 05:55:59;;;;;;;1.63;1.05;;;8.50;99.90;;;;;;5489422;26;20219;-77
2024/04/17 05:58:25;;;;;;;1.70;1.38;;;8.50;99.90;;;;;;5489770;26;20678;-78
2024/04/17 06:00:56;;;;;;;1.20;1.10;;;8.50;99.90;;;;;;5489714;26;20226;-77
2024/04/17 06:03:22;;;;;;;1.65;1.00;;;8.50;99.90;;;;;;5489487;26;20265;-77
2024/04/17 06:05:50;;;;;;;1.25;1.15;;;8.50;99.90;;;;;;5489830;26;20690;-76
2024/04/17 06:08:16;;;;;;;1.75;1.20;;;8.50;99.90;;;;;;5492807;26;20223;-77
2024/04/17 06:10:45;;;;;;;6.68;1.20;;;8.50;99.90;;;;;;5493083;26;20658;-78
2024/04/17 06:13:11;;;;;;;1.75;0.90;;;8.50;99.90;;;;;;5493260;26;20222;-77
2024/04/17 06:15:40;;;;;;;1.92;0.88;;;8.40;99.90;;;;;;5492865;26;20222;-77
2024/04/17 06:18:08;;;;;;;2.22;1.23;;;8.40;99.90;;;;;;5493488;26;20219;-78
2024/04/17 06:20:37;;;;;;;2.17;1.30;;;8.40;99.90;;;;;;5492758;26;20740;-77
2024/04/17 06:23:04;;;;;;;3.67;1.40;;;8.50;99.90;;;;;;5492755;26;20250;-76
2024/04/17 06:25:33;;;;;;;2.08;1.20;;;8.50;99.90;;;;;;5492863;26;20249;-76
2024/04/17 06:27:59;;;;;;;3.20;1.42;;;8.50;99.90;;;;;;5492665;26;20266;-77
2024/04/17 06:30:28;;;;;;;1.38;0.90;;;8.50;99.90;;;;;;5492940;26;20211;-78
2024/04/17 06:32:53;;;;;;;4.03;1.00;;;8.50;99.90;;;;;;5492517;26;20219;-80
2024/04/17 06:35:25;;;;;;;2.97;1.10;;;8.50;99.90;;;;;;5492366;26;20736;-77
2024/04/17 06:37:51;;;;;;;3.03;1.10;;;8.50;99.90;;;;;;5492236;26;20218;-78
2024/04/17 06:40:19;;;;;;;1.30;1.00;;;8.50;99.90;;;;;;5491843;26;20647;-78
2024/04/17 06:42:47;;;;;;;3.65;1.15;;;8.60;99.90;;;;;;5491038;26;20227;-77
2024/04/17 06:45:16;;;;;;;2.47;0.90;;;8.60;99.90;;;;;;5490633;26;20338;-77
2024/04/17 06:47:43;;;;;;;4.60;1.13;;;8.60;99.90;;;;;;5492166;26;20226;-77
2024/04/17 06:50:12;;;;;;;4.35;1.50;;;8.60;99.90;;;;;;5507862;26;20238;-77
2024/04/17 06:52:40;;;;;;;7.50;1.25;;;8.60;99.90;;;;;;5528453;26;20222;-77
2024/04/17 06:55:13;;;;;;;4.00;1.00;;;8.60;99.90;;;;;;5528330;26;20226;-79
2024/04/17 06:57:39;;;;;;;5.28;1.10;;;8.60;99.90;;;;;;5528687;26;20214;-76
2024/04/17 07:00:09;;;;;;;1.98;1.38;;;8.70;99.90;;;;;;5528214;26;20233;-77
2024/04/17 07:02:36;;;;;;;6.28;1.08;;;8.70;99.90;;;;;;5527417;26;20644;-78
2024/04/17 07:05:04;;;;;;;4.78;1.55;;;8.70;99.90;;;;;;5523598;26;20273;-77
2024/04/17 07:07:30;;;;;;;2.17;0.82;;;8.80;99.90;;;;;;5490387;26;20558;-77
2024/04/17 07:10:04;;;;;;;2.33;1.02;;;8.80;99.90;;;;;;5492291;26;20257;-78
2024/04/17 07:12:33;;;;;;;5.35;0.65;;;8.90;99.90;;;;;;5491304;26;20309;-77
2024/04/17 07:15:01;;;;;;;3.30;1.02;;;8.90;99.90;;;;;;5491720;26;20628;-78
2024/04/17 07:17:28;;;;;;;5.78;1.30;;;9.00;99.90;;;;;;5491262;26;20222;-78
2024/04/17 07:19:56;;;;;;;6.38;1.33;;;9.10;99.90;;;;;;5491031;26;20615;-79
2024/04/17 07:22:22;;;;;;;5.95;1.05;;;9.10;99.90;;;;;;5491764;26;20291;-79
2024/04/17 07:24:51;;;;;;;4.40;1.02;;;9.20;99.90;;;;;;5491738;26;20590;-78
2024/04/17 07:27:22;;;;;;;3.28;0.93;;;9.20;99.90;;;;;;5491721;26;20219;-80
2024/04/17 07:29:51;;;;;;;3.22;0.90;;;9.30;99.90;;;;;;5491580;26;20545;-78
2024/04/17 07:32:17;;;;;;;3.03;0.77;;;9.30;99.90;;;;;;5491403;26;20279;-78
2024/04/17 07:34:45;;;;;;;6.80;1.13;;;9.40;99.90;;;;;;5491255;26;20686;-77
2024/04/17 07:37:13;;;;;;;6.18;1.23;;;9.40;99.90;;;;;;5491786;26;20231;-77
2024/04/17 07:39:41;;;;;;;3.22;0.80;;;9.40;99.90;;;;;;5511118;26;20230;-78
2024/04/17 07:42:07;;;;;;;3.65;1.20;;;9.50;99.90;;;;;;5527932;26;20218;-77
2024/04/17 07:44:40;;;;;;;3.75;1.08;;;9.50;99.90;;;;;;5494919;26;20769;-81
2024/04/17 07:47:06;;;;;;;2.63;1.20;;;9.40;99.90;;;;;;5491369;26;20218;-78
2024/04/17 07:49:34;;;;;;;5.40;1.35;;;9.50;99.90;;;;;;5491551;26;20573;-77
2024/04/17 07:52:00;;;;;;;3.90;1.38;;;9.50;99.90;;;;;;5491459;26;20218;-77
2024/04/17 07:54:29;;;;;;;2.35;1.10;;;9.40;99.90;;;;;;5491194;26;20285;-77
2024/04/17 07:56:57;;;;;;;4.00;1.08;;;9.40;99.90;;;;;;5491168;26;20223;-77
2024/04/17 07:59:25;;;;;;;1.38;0.73;;;9.40;99.90;;;;;;5491047;26;20215;-77
2024/04/17 08:01:54;;;;;;;3.28;1.13;;;9.40;99.90;;;;;;5491162;26;20261;-81
2024/04/17 08:04:23;;;;;;;2.55;0.82;;;9.60;99.90;;;;;;5491308;26;20219;-77
2024/04/17 08:06:49;;;;;;;3.75;0.98;;;9.60;99.90;;;;;;5491038;26;20262;-77
2024/04/17 08:09:17;;;;;;;6.10;0.93;;;9.70;99.90;;;;;;5491835;26;20899;-77
2024/04/17 08:11:44;;;;;;;2.72;1.10;;;9.80;99.90;;;;;;5490745;26;20261;-78
2024/04/17 08:14:12;;;;;;;3.08;0.98;;;9.90;99.90;;;;;;5491083;26;20260;-78
2024/04/17 08:16:38;;;;;;;5.60;1.63;;;9.90;99.90;;;;;;5491016;26;20219;-82
2024/04/17 08:19:09;;;;;;;4.95;0.80;;;9.90;99.90;;;;;;5490956;26;20744;-78
2024/04/17 08:21:35;;;;;;;1.45;0.75;;;10.00;99.90;;;;;;5490462;26;20219;-78
2024/04/17 08:24:04;;;;;;;5.25;1.38;;;10.00;99.90;;;;;;5491047;26;20269;-78
2024/04/17 08:26:30;;;;;;;1.25;0.73;;;10.00;99.90;;;;;;5490900;26;20274;-79
2024/04/17 08:28:59;;;;;;;1.40;0.50;;;10.10;99.90;;;;;;5490528;26;20854;-79
2024/04/17 08:31:26;;;;;;;4.97;0.70;;;10.10;99.90;;;;;;5490800;26;20269;-79
2024/04/17 08:33:55;;;;;;;3.10;1.33;;;10.20;99.90;;;;;;5490643;26;20270;-79
2024/04/17 08:36:23;;;;;;;2.03;1.15;;;10.30;99.90;;;;;;5491001;26;20235;-79
2024/04/17 08:38:55;;;;;;;4.70;1.50;;;10.40;99.90;;;;;;5490618;26;20235;-82
2024/04/17 08:41:26;;;;;;;3.72;0.80;;;10.40;99.90;;;;;;5489809;26;20226;-78
2024/04/17 08:43:58;;;;;;;1.85;0.82;;;10.50;99.90;;;;;;5490749;26;20261;-79
2024/04/17 08:46:26;;;;;;;1.60;0.95;;;10.60;99.90;;;;;;5491025;26;20223;-79
2024/04/17 08:48:55;;;;;;;2.70;0.82;;;10.70;99.90;;;;;;5490536;26;20266;-80
2024/04/17 08:51:24;;;;;;;3.00;1.08;;;10.80;99.90;;;;;;5491449;26;20218;-82
2024/04/17 08:53:54;;;;;;;3.20;1.35;;;11.00;99.90;;;;;;5490651;26;20234;-84
2024/04/17 08:56:21;;;;;;;1.65;1.15;;;11.10;99.90;;;;;;5490978;26;20265;-79
2024/04/17 08:58:51;;;;;;;7.93;1.48;;;11.30;99.90;;;;;;5490669;26;20219;-80
2024/04/17 09:01:19;;;;;;;5.68;1.80;;;11.30;99.90;;;;;;5491507;26;20218;-79
2024/04/17 09:03:50;;;;;;;3.30;0.95;;;11.40;99.90;;;;;;5490531;26;20223;-82
2024/04/17 09:06:17;;;;;;;1.75;0.60;;;11.50;99.90;;;;;;5490364;26;20219;-83
2024/04/17 09:08:48;;;;;;;1.60;1.20;;;11.50;99.90;;;;;;5498983;26;20238;-79
2024/04/17 09:11:15;;;;;;;2.38;0.57;;;11.40;99.90;;;;;;5527201;26;20218;-78
2024/04/17 09:13:44;;;;;;;2.28;0.50;;;11.40;99.90;;;;;;5527733;26;20218;-81
2024/04/17 09:16:11;;;;;;;2.40;0.55;;;11.10;99.90;;;;;;5510156;26;20230;-78
2024/04/17 09:18:40;;;;;;;2.25;0.95;;;11.00;99.90;;;;;;5490756;26;20226;-80
2024/04/17 09:21:13;;;;;;;1.75;0.77;;;10.80;99.90;;;;;;5490335;26;20319;-82
2024/04/17 09:23:42;;;;;;;0.82;0.57;;;10.70;99.90;;;;;;5490620;26;20219;-81
2024/04/17 09:26:16;;;;;;;0.52;0.40;;;10.60;99.90;;;;;;5490301;26;20287;-80
2024/04/17 09:28:44;;;;;;;1.17;0.57;;;10.50;99.90;;;;;;5506407;26;20229;-79
2024/04/17 09:31:11;;;;;;;2.08;0.80;;;10.40;99.90;;;;;;5525599;26;20276;-80
2024/04/17 09:33:45;;;;;;;1.95;0.68;;;10.30;99.90;;;;;;5526887;26;20214;-78
2024/04/17 09:36:12;;;;;;;0.88;0.55;;;10.30;99.90;;;;;;5526678;25;20268;-78
2024/04/17 09:38:41;;;;;;;1.40;0.40;;;10.40;99.90;;;;;;5511581;26;20331;-79
2024/04/17 09:41:08;;;;;;;2.30;0.63;;;10.40;99.90;;;;;;5505841;26;20230;-79
2024/04/17 09:43:45;;;;;;;1.23;0.63;;;10.40;99.90;;;;;;5504128;26;20645;-78
2024/04/17 09:46:14;;;;;;;2.28;0.57;;;10.50;99.90;;;;;;5489609;26;20252;-81
2024/04/17 09:48:43;;;;;;;0.63;0.50;;;10.60;99.90;;;;;;5490130;26;20594;-78
2024/04/17 09:51:11;;;;;;;0.77;0.70;;;10.60;99.90;;;;;;5489595;26;20252;-78
2024/04/17 09:53:41;;;;;;;0.95;0.55;;;10.70;99.90;;;;;;5489717;26;20306;-78
2024/04/17 09:56:12;;;;;;;0.57;0.57;;;10.70;99.90;;;;;;5490109;26;20262;-78
2024/04/17 09:58:46;;;;;;;0.70;0.70;;;10.80;99.90;;;;;;5488221;26;20299;-79
2024/04/17 10:01:13;;;;;;;1.20;0.50;;;10.90;99.90;;;;;;5489145;26;20336;-79
2024/04/17 10:03:43;;;;;;;0.85;0.70;;;11.00;99.90;;;;;;5489205;26;20326;-78
2024/04/17 10:06:09;;;;;;;1.00;0.70;;;11.10;99.90;;;;;;5489218;26;20706;-78
2024/04/17 10:08:45;;;;;;;1.77;0.73;;;11.20;99.90;;;;;;5489160;26;20686;-78
2024/04/17 10:11:13;;;;;;;0.60;0.60;;;11.30;99.90;;;;;;5488694;26;20262;-78
2024/04/17 10:13:45;;;;;;;0.65;0.52;;;11.40;99.90;;;;;;5489430;26;20223;-78
2024/04/17 10:16:12;;;;;;;2.10;0.60;;;11.50;99.90;;;;;;5489287;26;20219;-78
2024/04/17 10:18:41;;;;;;;2.15;0.70;;;11.70;99.90;;;;;;5489209;26;20261;-79
2024/04/17 10:21:17;;;;;;;2.00;0.90;;;11.80;99.90;;;;;;5488972;26;20222;-78
2024/04/17 10:23:46;;;;;;;3.45;0.80;;;11.90;99.90;;;;;;5488990;26;20230;-78
2024/04/17 10:26:12;;;;;;;2.30;0.68;;;12.00;99.90;;;;;;5488904;26;20545;-78
2024/04/17 10:28:42;;;;;;;1.00;0.70;;;12.20;99.90;;;;;;5488955;26;20278;-79
2024/04/17 10:31:11;;;;;;;1.17;0.68;;;12.40;99.90;;;;;;5488788;26;20686;-79
2024/04/17 10:33:40;;;;;;;0.45;0.40;;;12.50;99.90;;;;;;5487917;26;20227;-80
2024/04/17 10:36:06;;;;;;;0.35;0.35;;;12.70;99.90;;;;;;5488968;26;20243;-80
2024/04/17 10:38:36;;;;;;;0.63;0.20;;;12.90;99.90;;;;;;5489304;26;20227;-80
2024/04/17 10:41:05;;;;;;;0.38;0.30;;;13.00;99.90;;;;;;5488929;26;20265;-80
2024/04/17 10:43:34;;;;;;;1.45;0.40;;;13.20;99.90;;;;;;5488647;26;20267;-82
2024/04/17 10:46:07;;;;;;;0.38;0.38;;;13.30;99.90;;;;;;5489081;26;20262;-83
2024/04/17 10:48:49;;;;;;;0.77;0.60;;;13.40;99.90;;;;;;5488616;26;20223;-80
2024/04/17 10:51:16;;;;;;;1.60;0.28;;;13.60;99.90;;;;;;5488887;26;20219;-81
2024/04/17 10:53:45;;;;;;;0.50;0.50;;;13.70;99.90;;;;;;5490284;26;20274;-84
2024/04/17 10:56:12;;;;;;;0.65;0.30;;;13.80;99.90;;;;;;5492198;26;20223;-81
2024/04/17 10:58:41;;;;;;;1.25;0.50;;;14.00;99.90;;;;;;5492669;26;20257;-86
2024/04/17 11:01:07;;;;;;;0.75;0.70;;;14.20;99.90;;;;;;5508807;26;20238;-84
2024/04/17 11:03:38;;;;;;;0.70;0.60;;;14.50;99.90;;;;;;5528266;26;20265;-83
2024/04/17 11:06:08;;;;;;;0.47;0.47;;;14.60;99.90;;;;;;5529113;26;20217;-81
2024/04/17 11:08:41;;;;;;;0.60;0.60;;;14.80;99.90;;;;;;5529619;26;20305;-83
2024/04/17 11:11:09;;;;;;;0.82;0.68;;;14.90;99.90;;;;;;5528953;26;20253;-82
2024/04/17 11:13:43;;;;;;;0.40;0.40;;;14.90;99.90;;;;;;5529247;26;20217;-81
2024/04/17 11:16:09;;;;;;;1.30;0.50;;;14.80;99.90;;;;;;5529125;26;20336;-84
2024/04/17 11:18:38;;;;;;;1.80;0.80;;;14.80;99.90;;;;;;5529147;26;20217;-81
2024/04/17 11:21:09;;;;;;;0.68;0.68;;;14.80;99.90;;;;;;5528998;26;20382;-84
2024/04/17 11:23:41;;;;;;;0.85;0.60;;;14.70;99.90;;;;;;5529305;26;20213;-81
2024/04/17 11:26:07;;;;;;;1.48;0.60;;;14.70;99.90;;;;;;5529299;26;20268;-81
2024/04/17 11:28:36;;;;;;;2.47;0.80;;;14.70;99.90;;;;;;5529216;26;20251;-81
2024/04/17 11:31:02;;;;;;;1.20;1.10;;;14.70;99.90;;;;;;5528312;26;20408;-81
2024/04/17 11:33:31;;;;;;;1.85;0.95;;;14.70;99.90;;;;;;5529246;26;20214;-81
2024/04/17 11:36:12;;;;;;;0.85;0.75;;;14.70;99.90;;;;;;5505033;26;20234;-82
2024/04/17 11:38:42;;;;;;;1.10;0.70;;;14.50;99.90;;;;;;5491861;26;20223;-80
2024/04/17 11:41:08;;;;;;;0.95;0.88;;;14.30;99.90;;;;;;5506826;26;20231;-81
2024/04/17 11:43:37;;;;;;;0.65;0.50;;;14.10;99.90;;;;;;5506847;26;20277;-79
2024/04/17 11:46:03;;;;;;;0.63;0.60;;;13.90;99.90;;;;;;5490261;26;20265;-78
2024/04/17 11:48:32;;;;;;;2.47;0.30;;;13.60;99.90;;;;;;5522013;26;20605;-78
2024/04/17 11:50:58;;;;;;;0.35;0.30;;;13.20;99.90;;;;;;5528386;26;20249;-80
2024/04/17 11:53:29;;;;;;;0.30;0.30;;;13.00;99.90;;;;;;5528371;26;20222;-80
2024/04/17 11:55:55;;;;;;;0.90;0.25;;;12.70;99.90;;;;;;5528300;26;20797;-78
2024/04/17 11:58:24;;;;;;;0.30;0.30;;;12.60;99.90;;;;;;5528333;26;20252;-83
2024/04/17 12:00:51;;;;;;;0.47;0.47;;;12.20;99.90;;;;;;5528322;26;20218;-80
2024/04/17 12:03:20;;;;;;;0.47;0.47;;;12.10;99.90;;;;;;5527543;26;20225;-81
2024/04/17 12:05:47;;;;;;;0.40;0.40;;;12.00;99.90;;;;;;5525524;26;20566;-81
2024/04/17 12:08:16;;;;;;;0.45;0.45;;;11.90;99.90;;;;;;5528209;26;20778;-79
2024/04/17 12:10:47;;;;;;;0.50;0.45;;;11.90;99.90;;;;;;5528017;26;20740;-79
2024/04/17 12:13:16;;;;;;;0.50;0.50;;;11.80;99.90;;;;;;5528009;26;20328;-80
2024/04/17 12:15:42;;;;;;;0.40;0.40;;;11.70;99.90;;;;;;5528236;26;20222;-79
2024/04/17 12:18:11;;;;;;;1.20;0.70;;;11.60;99.90;;;;;;5527914;26;20218;-80
2024/04/17 12:20:37;;;;;;;0.65;0.60;;;11.60;99.90;;;;;;5528001;26;20218;-79
2024/04/17 12:23:05;;;;;;;0.60;0.60;;;11.60;99.90;;;;;;5527769;26;20222;-77
2024/04/17 12:28:21;;;;;;;0.50;0.45;;;11.40;99.90;;;;;;5530545;26;20281;-79
2024/04/17 12:30:50;;;;;;;0.55;0.50;;;11.30;99.90;;;;;;5527915;26;20222;-80
2024/04/17 12:33:18;;;;;;;0.52;0.52;;;11.20;99.90;;;;;;5527702;26;20217;-82
2024/04/17 12:35:47;;;;;;;0.22;0.22;;;11.10;99.90;;;;;;5539837;25;20267;-79
2024/04/17 12:38:15;;;;;;;0.20;0.20;;;11.10;99.90;;;;;;5565339;25;20218;-79
2024/04/17 12:40:44;;;;;;;0.30;0.30;;;11.00;99.90;;;;;;5564831;25;20569;-80
2024/04/17 12:43:13;;;;;;;0.30;0.30;;;10.90;99.90;;;;;;5564897;25;20216;-79
2024/04/17 12:45:41;;;;;;;0.28;0.25;;;10.90;99.90;;;;;;5565366;25;20596;-79
2024/04/17 12:48:10;;;;;;;2.97;0.40;;;10.90;99.90;;;;;;5564844;25;20221;-82
2024/04/17 12:50:39;;;;;;;0.40;0.40;;;10.90;99.90;;;;;;5564943;25;20255;-78
2024/04/17 12:53:08;;;;;;;0.85;0.55;;;10.90;99.90;;;;;;5564678;25;20217;-78
2024/04/17 12:55:37;;;;;;;0.45;0.45;;;10.90;99.90;;;;;;5564870;25;20221;-78
2024/04/17 12:58:07;;;;;;;1.27;0.30;;;10.90;99.90;;;;;;5564896;25;20217;-81
2024/04/17 13:00:35;;;;;;;0.40;0.40;;;11.00;99.90;;;;;;5564769;25;20225;-78
2024/04/17 13:03:04;;;;;;;0.40;0.40;;;11.00;99.90;;;;;;5555758;25;20242;-77